sensor_id;sensor_type;location;lat;lon;timestamp;temperature;humidity
22674;DHT22;11504;43.334;21.918;2022-10-23T00:01:45;16.4;100.0
22674;DHT22;11504;43.334;21.918;2022-10-23T00:06:23;16.4;100.0
22674;DHT22;11504;43.334;21.918;2022-10-23T00:10:59;16.4;100.0
22674;DHT22;11504;43.334;21.918;2022-10-23T00:15:36;16.6;100.0
22674;DHT22;11504;43.334;21.918;2022-10-23T00:20:16;16.6;100.0
22674;DHT22;11504;43.334;21.918;2022-10-23T00:24:53;16.8;100.0
22674;DHT22;11504;43.334;21.918;2022-10-23T00:29:30;16.8;100.0
22674;DHT22;11504;43.334;21.918;2022-10-23T00:34:07;17.0;100.0
22674;DHT22;11504;43.334;21.918;2022-10-23T00:38:45;17.0;100.0
22674;DHT22;11504;43.334;21.918;2022-10-23T00:43:30;17.1;100.0
22674;DHT22;11504;43.334;21.918;2022-10-23T00:48:09;17.1;100.0
22674;DHT22;11504;43.334;21.918;2022-10-23T00:52:56;17.2;100.0
22674;DHT22;11504;43.334;21.918;2022-10-23T00:57:46;17.2;100.0
22674;DHT22;11504;43.334;21.918;2022-10-23T01:02:27;17.2;100.0
22674;DHT22;11504;43.334;21.918;2022-10-23T01:07:28;17.2;100.0
22674;DHT22;11504;43.334;21.918;2022-10-23T01:12:52;17.2;100.0
22674;DHT22;11504;43.334;21.918;2022-10-23T01:18:10;17.2;100.0
22674;DHT22;11504;43.334;21.918;2022-10-23T01:24:05;17.3;100.0
22674;DHT22;11504;43.334;21.918;2022-10-23T01:29:10;17.3;100.0
22674;DHT22;11504;43.334;21.918;2022-10-23T01:34:12;17.3;100.0
22674;DHT22;11504;43.334;21.918;2022-10-23T01:39:07;17.3;100.0
22674;DHT22;11504;43.334;21.918;2022-10-23T01:44:09;17.3;100.0
22674;DHT22;11504;43.334;21.918;2022-10-23T01:48:58;17.3;100.0
22674;DHT22;11504;43.334;21.918;2022-10-23T01:53:47;17.3;100.0
22674;DHT22;11504;43.334;21.918;2022-10-23T01:58:37;17.3;100.0
22674;DHT22;11504;43.334;21.918;2022-10-23T02:03:34;17.3;100.0
22674;DHT22;11504;43.334;21.918;2022-10-23T02:08:18;17.3;100.0
22674;DHT22;11504;43.334;21.918;2022-10-23T02:13:11;17.3;100.0
22674;DHT22;11504;43.334;21.918;2022-10-23T02:18:28;17.3;100.0
22674;DHT22;11504;43.334;21.918;2022-10-23T02:23:32;17.3;100.0
22674;DHT22;11504;43.334;21.918;2022-10-23T02:28:26;17.3;100.0
22674;DHT22;11504;43.334;21.918;2022-10-23T02:33:16;17.2;100.0
22674;DHT22;11504;43.334;21.918;2022-10-23T02:38:00;17.2;100.0
22674;DHT22;11504;43.334;21.918;2022-10-23T02:43:00;17.2;100.0
22674;DHT22;11504;43.334;21.918;2022-10-23T02:48:08;17.2;100.0
22674;DHT22;11504;43.334;21.918;2022-10-23T02:53:13;17.1;100.0
22674;DHT22;11504;43.334;21.918;2022-10-23T02:58:15;17.1;100.0
22674;DHT22;11504;43.334;21.918;2022-10-23T03:03:16;17.0;100.0
22674;DHT22;11504;43.334;21.918;2022-10-23T03:07:58;17.0;100.0
22674;DHT22;11504;43.334;21.918;2022-10-23T03:12:38;16.9;100.0
22674;DHT22;11504;43.334;21.918;2022-10-23T03:17:15;16.9;100.0
22674;DHT22;11504;43.334;21.918;2022-10-23T03:21:52;16.8;100.0
22674;DHT22;11504;43.334;21.918;2022-10-23T03:26:30;16.8;100.0
22674;DHT22;11504;43.334;21.918;2022-10-23T03:31:07;16.8;100.0
22674;DHT22;11504;43.334;21.918;2022-10-23T03:35:44;16.8;100.0
22674;DHT22;11504;43.334;21.918;2022-10-23T03:40:23;16.8;100.0
22674;DHT22;11504;43.334;21.918;2022-10-23T03:44:59;16.7;100.0
22674;DHT22;11504;43.334;21.918;2022-10-23T03:49:37;16.7;100.0
22674;DHT22;11504;43.334;21.918;2022-10-23T03:54:15;16.7;100.0
22674;DHT22;11504;43.334;21.918;2022-10-23T03:58:52;16.7;100.0
22674;DHT22;11504;43.334;21.918;2022-10-23T04:03:29;16.7;100.0
22674;DHT22;11504;43.334;21.918;2022-10-23T04:08:05;16.7;100.0
22674;DHT22;11504;43.334;21.918;2022-10-23T04:12:42;16.7;100.0
22674;DHT22;11504;43.334;21.918;2022-10-23T04:17:18;16.7;100.0
22674;DHT22;11504;43.334;21.918;2022-10-23T04:21:55;16.7;100.0
22674;DHT22;11504;43.334;21.918;2022-10-23T04:26:32;16.7;100.0
22674;DHT22;11504;43.334;21.918;2022-10-23T04:31:08;16.7;100.0
22674;DHT22;11504;43.334;21.918;2022-10-23T04:35:45;16.6;100.0
22674;DHT22;11504;43.334;21.918;2022-10-23T04:40:21;16.6;100.0
22674;DHT22;11504;43.334;21.918;2022-10-23T04:44:58;16.6;100.0
22674;DHT22;11504;43.334;21.918;2022-10-23T04:49:35;16.6;100.0
22674;DHT22;11504;43.334;21.918;2022-10-23T04:54:11;16.5;100.0
22674;DHT22;11504;43.334;21.918;2022-10-23T04:58:48;16.5;100.0
22674;DHT22;11504;43.334;21.918;2022-10-23T05:03:26;16.3;100.0
22674;DHT22;11504;43.334;21.918;2022-10-23T05:08:03;16.3;100.0
22674;DHT22;11504;43.334;21.918;2022-10-23T05:12:39;16.2;100.0
22674;DHT22;11504;43.334;21.918;2022-10-23T05:17:28;16.2;100.0
22674;DHT22;11504;43.334;21.918;2022-10-23T05:22:13;16.1;100.0
22674;DHT22;11504;43.334;21.918;2022-10-23T05:26:52;16.1;100.0
22674;DHT22;11504;43.334;21.918;2022-10-23T05:31:29;16.1;100.0
22674;DHT22;11504;43.334;21.918;2022-10-23T05:36:14;16.0;100.0
22674;DHT22;11504;43.334;21.918;2022-10-23T05:40:53;16.0;100.0
22674;DHT22;11504;43.334;21.918;2022-10-23T05:45:30;15.9;100.0
22674;DHT22;11504;43.334;21.918;2022-10-23T05:50:08;15.9;100.0
22674;DHT22;11504;43.334;21.918;2022-10-23T05:54:45;15.9;100.0
22674;DHT22;11504;43.334;21.918;2022-10-23T05:59:23;15.9;100.0
22674;DHT22;11504;43.334;21.918;2022-10-23T06:04:01;15.9;100.0
22674;DHT22;11504;43.334;21.918;2022-10-23T06:08:39;15.9;100.0
22674;DHT22;11504;43.334;21.918;2022-10-23T06:13:16;16.1;100.0
22674;DHT22;11504;43.334;21.918;2022-10-23T06:17:53;16.1;100.0
22674;DHT22;11504;43.334;21.918;2022-10-23T06:22:30;16.3;100.0
22674;DHT22;11504;43.334;21.918;2022-10-23T06:27:07;16.3;100.0
22674;DHT22;11504;43.334;21.918;2022-10-23T06:31:44;16.3;100.0
22674;DHT22;11504;43.334;21.918;2022-10-23T06:36:23;17.0;100.0
22674;DHT22;11504;43.334;21.918;2022-10-23T06:41:06;17.0;100.0
22674;DHT22;11504;43.334;21.918;2022-10-23T06:45:48;17.8;100.0
22674;DHT22;11504;43.334;21.918;2022-10-23T06:50:27;17.8;100.0
22674;DHT22;11504;43.334;21.918;2022-10-23T06:55:06;19.2;100.0
22674;DHT22;11504;43.334;21.918;2022-10-23T06:59:44;19.2;100.0
22674;DHT22;11504;43.334;21.918;2022-10-23T07:04:21;20.7;100.0
22674;DHT22;11504;43.334;21.918;2022-10-23T07:08:59;20.7;100.0
22674;DHT22;11504;43.334;21.918;2022-10-23T07:13:39;23.2;100.0
22674;DHT22;11504;43.334;21.918;2022-10-23T07:18:16;23.2;100.0
22674;DHT22;11504;43.334;21.918;2022-10-23T07:22:56;25.7;100.0
22674;DHT22;11504;43.334;21.918;2022-10-23T07:27:37;25.7;100.0
22674;DHT22;11504;43.334;21.918;2022-10-23T07:32:14;26.6;100.0
22674;DHT22;11504;43.334;21.918;2022-10-23T07:36:51;26.6;100.0
22674;DHT22;11504;43.334;21.918;2022-10-23T07:41:28;26.6;100.0
22674;DHT22;11504;43.334;21.918;2022-10-23T07:46:05;27.5;100.0
22674;DHT22;11504;43.334;21.918;2022-10-23T07:50:42;27.5;100.0
22674;DHT22;11504;43.334;21.918;2022-10-23T07:55:19;27.5;100.0
22674;DHT22;11504;43.334;21.918;2022-10-23T07:59:55;27.5;100.0
22674;DHT22;11504;43.334;21.918;2022-10-23T08:04:32;27.5;100.0
22674;DHT22;11504;43.334;21.918;2022-10-23T08:09:08;27.5;100.0
22674;DHT22;11504;43.334;21.918;2022-10-23T08:13:45;28.2;100.0
22674;DHT22;11504;43.334;21.918;2022-10-23T08:18:21;28.2;100.0
22674;DHT22;11504;43.334;21.918;2022-10-23T08:22:58;29.0;100.0
22674;DHT22;11504;43.334;21.918;2022-10-23T08:27:35;29.0;100.0
22674;DHT22;11504;43.334;21.918;2022-10-23T08:32:11;28.8;100.0
22674;DHT22;11504;43.334;21.918;2022-10-23T08:36:48;28.8;100.0
22674;DHT22;11504;43.334;21.918;2022-10-23T08:41:36;28.8;100.0
22674;DHT22;11504;43.334;21.918;2022-10-23T08:46:37;28.5;100.0
22674;DHT22;11504;43.334;21.918;2022-10-23T08:51:41;28.5;100.0
22674;DHT22;11504;43.334;21.918;2022-10-23T08:56:38;28.2;100.0
22674;DHT22;11504;43.334;21.918;2022-10-23T09:01:45;28.2;100.0
22674;DHT22;11504;43.334;21.918;2022-10-23T09:07:00;27.8;100.0
22674;DHT22;11504;43.334;21.918;2022-10-23T09:12:19;28.2;100.0
22674;DHT22;11504;43.334;21.918;2022-10-23T09:17:24;28.2;100.0
22674;DHT22;11504;43.334;21.918;2022-10-23T09:22:05;28.2;100.0
22674;DHT22;11504;43.334;21.918;2022-10-23T09:26:46;28.6;100.0
22674;DHT22;11504;43.334;21.918;2022-10-23T09:31:26;28.6;100.0
22674;DHT22;11504;43.334;21.918;2022-10-23T09:36:19;28.6;100.0
22674;DHT22;11504;43.334;21.918;2022-10-23T09:41:13;28.6;100.0
22674;DHT22;11504;43.334;21.918;2022-10-23T09:46:03;28.6;100.0
22674;DHT22;11504;43.334;21.918;2022-10-23T09:50:54;28.6;100.0
22674;DHT22;11504;43.334;21.918;2022-10-23T09:55:34;28.2;100.0
22674;DHT22;11504;43.334;21.918;2022-10-23T10:00:23;28.2;100.0
22674;DHT22;11504;43.334;21.918;2022-10-23T10:05:27;27.7;100.0
22674;DHT22;11504;43.334;21.918;2022-10-23T10:10:15;27.7;100.0
22674;DHT22;11504;43.334;21.918;2022-10-23T10:15:19;27.5;100.0
22674;DHT22;11504;43.334;21.918;2022-10-23T10:20:51;27.5;100.0
22674;DHT22;11504;43.334;21.918;2022-10-23T10:26:07;27.3;100.0
22674;DHT22;11504;43.334;21.918;2022-10-23T10:31:25;27.3;100.0
22674;DHT22;11504;43.334;21.918;2022-10-23T10:36:50;27.0;100.0
22674;DHT22;11504;43.334;21.918;2022-10-23T10:42:29;26.8;100.0
22674;DHT22;11504;43.334;21.918;2022-10-23T10:47:26;26.8;100.0
22674;DHT22;11504;43.334;21.918;2022-10-23T10:52:30;26.4;100.0
22674;DHT22;11504;43.334;21.918;2022-10-23T10:57:38;26.4;100.0
22674;DHT22;11504;43.334;21.918;2022-10-23T11:02:37;26.0;100.0
22674;DHT22;11504;43.334;21.918;2022-10-23T11:07:38;26.0;100.0
22674;DHT22;11504;43.334;21.918;2022-10-23T11:12:27;25.6;100.0
22674;DHT22;11504;43.334;21.918;2022-10-23T11:17:24;25.6;100.0
22674;DHT22;11504;43.334;21.918;2022-10-23T11:22:35;25.2;100.0
22674;DHT22;11504;43.334;21.918;2022-10-23T11:28:15;25.2;100.0
22674;DHT22;11504;43.334;21.918;2022-10-23T11:36:04;25.0;100.0
22674;DHT22;11504;43.334;21.918;2022-10-23T11:41:03;25.0;100.0
22674;DHT22;11504;43.334;21.918;2022-10-23T11:45:58;24.7;100.0
22674;DHT22;11504;43.334;21.918;2022-10-23T11:50:53;24.7;100.0
22674;DHT22;11504;43.334;21.918;2022-10-23T11:55:31;24.4;100.0
22674;DHT22;11504;43.334;21.918;2022-10-23T12:00:22;24.4;100.0
22674;DHT22;11504;43.334;21.918;2022-10-23T12:05:26;24.2;100.0
22674;DHT22;11504;43.334;21.918;2022-10-23T12:10:28;24.2;100.0
22674;DHT22;11504;43.334;21.918;2022-10-23T12:15:22;24.2;100.0
22674;DHT22;11504;43.334;21.918;2022-10-23T12:20:24;24.2;100.0
22674;DHT22;11504;43.334;21.918;2022-10-23T12:25:36;24.1;100.0
22674;DHT22;11504;43.334;21.918;2022-10-23T12:31:14;24.1;100.0
22674;DHT22;11504;43.334;21.918;2022-10-23T12:36:50;24.2;100.0
22674;DHT22;11504;43.334;21.918;2022-10-23T12:42:24;24.3;100.0
22674;DHT22;11504;43.334;21.918;2022-10-23T12:47:05;24.3;100.0
22674;DHT22;11504;43.334;21.918;2022-10-23T12:51:58;24.3;100.0
22674;DHT22;11504;43.334;21.918;2022-10-23T12:56:39;24.2;100.0
22674;DHT22;11504;43.334;21.918;2022-10-23T13:01:27;24.2;100.0
22674;DHT22;11504;43.334;21.918;2022-10-23T13:06:10;24.2;100.0
22674;DHT22;11504;43.334;21.918;2022-10-23T13:10:49;24.2;100.0
22674;DHT22;11504;43.334;21.918;2022-10-23T13:15:38;24.2;100.0
22674;DHT22;11504;43.334;21.918;2022-10-23T13:20:26;24.2;100.0
22674;DHT22;11504;43.334;21.918;2022-10-23T13:25:28;24.2;100.0
22674;DHT22;11504;43.334;21.918;2022-10-23T13:30:31;24.2;100.0
22674;DHT22;11504;43.334;21.918;2022-10-23T13:35:22;24.2;100.0
22674;DHT22;11504;43.334;21.918;2022-10-23T13:40:05;24.2;100.0
22674;DHT22;11504;43.334;21.918;2022-10-23T13:44:59;24.1;100.0
22674;DHT22;11504;43.334;21.918;2022-10-23T13:49:36;24.1;100.0
22674;DHT22;11504;43.334;21.918;2022-10-23T13:54:18;24.0;100.0
22674;DHT22;11504;43.334;21.918;2022-10-23T13:59:03;24.0;100.0
22674;DHT22;11504;43.334;21.918;2022-10-23T14:03:40;24.0;100.0
22674;DHT22;11504;43.334;21.918;2022-10-23T14:08:17;24.0;100.0
22674;DHT22;11504;43.334;21.918;2022-10-23T14:12:55;23.9;100.0
22674;DHT22;11504;43.334;21.918;2022-10-23T14:17:34;23.9;100.0
22674;DHT22;11504;43.334;21.918;2022-10-23T14:22:13;23.9;100.0
22674;DHT22;11504;43.334;21.918;2022-10-23T14:26:50;23.8;100.0
22674;DHT22;11504;43.334;21.918;2022-10-23T14:31:26;23.8;100.0
22674;DHT22;11504;43.334;21.918;2022-10-23T14:36:06;23.7;100.0
22674;DHT22;11504;43.334;21.918;2022-10-23T14:40:46;23.7;100.0
22674;DHT22;11504;43.334;21.918;2022-10-23T14:45:23;23.6;100.0
22674;DHT22;11504;43.334;21.918;2022-10-23T14:50:00;23.6;100.0
22674;DHT22;11504;43.334;21.918;2022-10-23T14:54:36;23.5;100.0
22674;DHT22;11504;43.334;21.918;2022-10-23T14:59:13;23.5;100.0
22674;DHT22;11504;43.334;21.918;2022-10-23T15:03:50;23.3;100.0
22674;DHT22;11504;43.334;21.918;2022-10-23T15:08:27;23.3;100.0
22674;DHT22;11504;43.334;21.918;2022-10-23T15:13:03;23.2;100.0
22674;DHT22;11504;43.334;21.918;2022-10-23T15:17:40;23.2;100.0
22674;DHT22;11504;43.334;21.918;2022-10-23T15:22:17;23.2;100.0
22674;DHT22;11504;43.334;21.918;2022-10-23T15:26:54;23.0;100.0
22674;DHT22;11504;43.334;21.918;2022-10-23T15:31:54;23.0;100.0
22674;DHT22;11504;43.334;21.918;2022-10-23T15:36:34;22.8;100.0
22674;DHT22;11504;43.334;21.918;2022-10-23T15:41:21;22.8;100.0
22674;DHT22;11504;43.334;21.918;2022-10-23T15:46:06;22.7;100.0
22674;DHT22;11504;43.334;21.918;2022-10-23T15:50:42;22.7;100.0
22674;DHT22;11504;43.334;21.918;2022-10-23T15:55:19;22.5;100.0
22674;DHT22;11504;43.334;21.918;2022-10-23T15:59:56;22.5;100.0
22674;DHT22;11504;43.334;21.918;2022-10-23T16:04:33;22.3;100.0
22674;DHT22;11504;43.334;21.918;2022-10-23T16:09:10;22.3;100.0
22674;DHT22;11504;43.334;21.918;2022-10-23T16:13:48;22.1;100.0
22674;DHT22;11504;43.334;21.918;2022-10-23T16:18:25;22.1;100.0
22674;DHT22;11504;43.334;21.918;2022-10-23T16:23:02;21.9;100.0
22674;DHT22;11504;43.334;21.918;2022-10-23T16:27:38;21.9;100.0
22674;DHT22;11504;43.334;21.918;2022-10-23T16:32:15;21.9;100.0
22674;DHT22;11504;43.334;21.918;2022-10-23T16:36:51;21.6;100.0
22674;DHT22;11504;43.334;21.918;2022-10-23T16:41:28;21.6;100.0
22674;DHT22;11504;43.334;21.918;2022-10-23T16:46:13;21.3;100.0
22674;DHT22;11504;43.334;21.918;2022-10-23T16:50:57;21.3;100.0
22674;DHT22;11504;43.334;21.918;2022-10-23T16:55:39;21.0;100.0
22674;DHT22;11504;43.334;21.918;2022-10-23T17:00:17;21.0;100.0
22674;DHT22;11504;43.334;21.918;2022-10-23T17:04:54;20.7;100.0
22674;DHT22;11504;43.334;21.918;2022-10-23T17:09:32;20.7;100.0
22674;DHT22;11504;43.334;21.918;2022-10-23T17:14:15;20.4;100.0
22674;DHT22;11504;43.334;21.918;2022-10-23T17:18:56;20.4;100.0
22674;DHT22;11504;43.334;21.918;2022-10-23T17:23:34;20.1;100.0
22674;DHT22;11504;43.334;21.918;2022-10-23T17:28:11;20.1;100.0
22674;DHT22;11504;43.334;21.918;2022-10-23T17:32:48;19.7;100.0
22674;DHT22;11504;43.334;21.918;2022-10-23T17:37:25;19.7;100.0
22674;DHT22;11504;43.334;21.918;2022-10-23T17:42:01;19.7;100.0
22674;DHT22;11504;43.334;21.918;2022-10-23T17:46:38;19.3;100.0
22674;DHT22;11504;43.334;21.918;2022-10-23T17:51:20;19.3;100.0
22674;DHT22;11504;43.334;21.918;2022-10-23T17:56:02;19.1;100.0
22674;DHT22;11504;43.334;21.918;2022-10-23T18:00:45;19.1;100.0
22674;DHT22;11504;43.334;21.918;2022-10-23T18:05:21;18.9;100.0
22674;DHT22;11504;43.334;21.918;2022-10-23T18:09:58;18.9;100.0
22674;DHT22;11504;43.334;21.918;2022-10-23T18:14:36;18.8;100.0
22674;DHT22;11504;43.334;21.918;2022-10-23T18:19:15;18.8;100.0
22674;DHT22;11504;43.334;21.918;2022-10-23T18:23:53;18.6;100.0
22674;DHT22;11504;43.334;21.918;2022-10-23T18:28:31;18.6;100.0
22674;DHT22;11504;43.334;21.918;2022-10-23T18:33:08;18.2;100.0
22674;DHT22;11504;43.334;21.918;2022-10-23T18:37:45;18.2;100.0
22674;DHT22;11504;43.334;21.918;2022-10-23T18:42:21;18.2;100.0
22674;DHT22;11504;43.334;21.918;2022-10-23T18:46:59;17.9;100.0
22674;DHT22;11504;43.334;21.918;2022-10-23T18:51:37;17.9;100.0
22674;DHT22;11504;43.334;21.918;2022-10-23T18:56:20;17.8;100.0
22674;DHT22;11504;43.334;21.918;2022-10-23T19:01:00;17.8;100.0
22674;DHT22;11504;43.334;21.918;2022-10-23T19:05:41;17.7;100.0
22674;DHT22;11504;43.334;21.918;2022-10-23T19:10:22;17.7;100.0
22674;DHT22;11504;43.334;21.918;2022-10-23T19:15:08;17.6;100.0
22674;DHT22;11504;43.334;21.918;2022-10-23T19:19:54;17.6;100.0
22674;DHT22;11504;43.334;21.918;2022-10-23T19:24:50;17.5;100.0
22674;DHT22;11504;43.334;21.918;2022-10-23T19:29:44;17.5;100.0
22674;DHT22;11504;43.334;21.918;2022-10-23T19:34:27;17.5;100.0
22674;DHT22;11504;43.334;21.918;2022-10-23T19:39:04;17.5;100.0
22674;DHT22;11504;43.334;21.918;2022-10-23T19:43:41;17.5;100.0
22674;DHT22;11504;43.334;21.918;2022-10-23T19:48:18;17.5;100.0
22674;DHT22;11504;43.334;21.918;2022-10-23T19:52:55;17.4;100.0
22674;DHT22;11504;43.334;21.918;2022-10-23T19:57:32;17.4;100.0
22674;DHT22;11504;43.334;21.918;2022-10-23T20:02:11;17.4;100.0
22674;DHT22;11504;43.334;21.918;2022-10-23T20:06:48;17.3;100.0
22674;DHT22;11504;43.334;21.918;2022-10-23T20:11:30;17.3;100.0
22674;DHT22;11504;43.334;21.918;2022-10-23T20:16:07;17.2;100.0
22674;DHT22;11504;43.334;21.918;2022-10-23T20:20:43;17.2;100.0
22674;DHT22;11504;43.334;21.918;2022-10-23T20:25:20;17.1;100.0
22674;DHT22;11504;43.334;21.918;2022-10-23T20:29:57;17.1;100.0
22674;DHT22;11504;43.334;21.918;2022-10-23T20:34:33;17.0;100.0
22674;DHT22;11504;43.334;21.918;2022-10-23T20:39:16;17.0;100.0
22674;DHT22;11504;43.334;21.918;2022-10-23T20:43:56;17.0;100.0
22674;DHT22;11504;43.334;21.918;2022-10-23T20:48:35;17.0;100.0
22674;DHT22;11504;43.334;21.918;2022-10-23T20:53:16;16.9;100.0
22674;DHT22;11504;43.334;21.918;2022-10-23T20:57:52;16.9;100.0
22674;DHT22;11504;43.334;21.918;2022-10-23T21:02:29;16.9;100.0
22674;DHT22;11504;43.334;21.918;2022-10-23T21:07:05;16.8;100.0
22674;DHT22;11504;43.334;21.918;2022-10-23T21:11:42;16.8;100.0
22674;DHT22;11504;43.334;21.918;2022-10-23T21:16:21;16.8;100.0
22674;DHT22;11504;43.334;21.918;2022-10-23T21:21:05;16.8;100.0
22674;DHT22;11504;43.334;21.918;2022-10-23T21:25:42;16.7;100.0
22674;DHT22;11504;43.334;21.918;2022-10-23T21:30:19;16.7;100.0
22674;DHT22;11504;43.334;21.918;2022-10-23T21:34:55;16.5;100.0
22674;DHT22;11504;43.334;21.918;2022-10-23T21:39:32;16.5;100.0
22674;DHT22;11504;43.334;21.918;2022-10-23T21:44:11;16.4;100.0
22674;DHT22;11504;43.334;21.918;2022-10-23T21:48:49;16.4;100.0
22674;DHT22;11504;43.334;21.918;2022-10-23T21:53:28;16.4;100.0
22674;DHT22;11504;43.334;21.918;2022-10-23T21:58:05;16.4;100.0
22674;DHT22;11504;43.334;21.918;2022-10-23T22:02:44;16.4;100.0
22674;DHT22;11504;43.334;21.918;2022-10-23T22:07:20;16.3;100.0
22674;DHT22;11504;43.334;21.918;2022-10-23T22:11:57;16.3;100.0
22674;DHT22;11504;43.334;21.918;2022-10-23T22:16:36;16.2;100.0
22674;DHT22;11504;43.334;21.918;2022-10-23T22:21:16;16.2;100.0
22674;DHT22;11504;43.334;21.918;2022-10-23T22:26:04;16.0;100.0
22674;DHT22;11504;43.334;21.918;2022-10-23T22:31:00;16.0;100.0
22674;DHT22;11504;43.334;21.918;2022-10-23T22:35:37;15.9;100.0
22674;DHT22;11504;43.334;21.918;2022-10-23T22:40:15;15.9;100.0
22674;DHT22;11504;43.334;21.918;2022-10-23T22:44:52;15.8;100.0
22674;DHT22;11504;43.334;21.918;2022-10-23T22:49:28;15.8;100.0
22674;DHT22;11504;43.334;21.918;2022-10-23T22:54:05;15.6;100.0
22674;DHT22;11504;43.334;21.918;2022-10-23T22:58:44;15.6;100.0
22674;DHT22;11504;43.334;21.918;2022-10-23T23:03:22;15.5;100.0
22674;DHT22;11504;43.334;21.918;2022-10-23T23:07:59;15.5;100.0
22674;DHT22;11504;43.334;21.918;2022-10-23T23:12:36;15.5;100.0
22674;DHT22;11504;43.334;21.918;2022-10-23T23:17:12;15.5;100.0
22674;DHT22;11504;43.334;21.918;2022-10-23T23:21:49;15.5;100.0
22674;DHT22;11504;43.334;21.918;2022-10-23T23:26:25;15.5;100.0
22674;DHT22;11504;43.334;21.918;2022-10-23T23:31:06;15.5;100.0
22674;DHT22;11504;43.334;21.918;2022-10-23T23:35:57;15.4;100.0
22674;DHT22;11504;43.334;21.918;2022-10-23T23:40:35;15.4;100.0
22674;DHT22;11504;43.334;21.918;2022-10-23T23:45:12;15.4;100.0
22674;DHT22;11504;43.334;21.918;2022-10-23T23:49:49;15.4;100.0
22674;DHT22;11504;43.334;21.918;2022-10-23T23:54:26;15.4;100.0
22674;DHT22;11504;43.334;21.918;2022-10-23T23:59:03;15.4;100.0
